Time;durP1;ratioP1;P1;durP2;ratioP2;P2;SDS_P1;SDS_P2;PMS_P1;PMS_P2;Temp;Humidity;BMP_temperature;BMP_pressure;BME280_temperature;BME280_humidity;BME280_pressure;Samples;Min_cycle;Max_cycle;Signal;HPM_P1;HPM_P2
2022/12/17 13:06:52;;;;;;;35.93;23.10;;;4.10;99.90;;;;;;5052447;28;20571;-73
2022/12/17 13:09:21;;;;;;;36.63;24.17;;;3.90;99.90;;;;;;5067390;28;20173;-72
2022/12/17 13:11:48;;;;;;;33.03;21.40;;;3.70;99.90;;;;;;5052443;28;20165;-74
2022/12/17 13:14:57;;;;;;;32.77;22.53;;;3.70;99.90;;;;;;5072270;28;20247;-73
2022/12/17 13:17:35;;;;;;;43.17;28.93;;;3.50;99.90;;;;;;5010501;28;20183;-72
2022/12/17 13:20:25;;;;;;;38.20;25.80;;;3.60;99.90;;;;;;5010941;28;20166;-72
2022/12/17 13:23:04;;;;;;;39.30;23.13;;;3.50;99.90;;;;;;5010285;28;20170;-72
2022/12/17 13:25:30;;;;;;;34.80;23.50;;;3.50;99.90;;;;;;5010560;28;20177;-73
2022/12/17 13:27:56;;;;;;;36.90;22.10;;;3.50;99.90;;;;;;5010222;28;20282;-72
2022/12/17 13:30:36;;;;;;;38.97;25.60;;;3.50;99.90;;;;;;5010693;28;20197;-73
2022/12/17 13:33:17;;;;;;;39.90;23.47;;;3.50;99.90;;;;;;5010774;28;20182;-72
2022/12/17 13:36:06;;;;;;;107.90;80.93;;;3.50;99.90;;;;;;5009429;28;20232;-73
2022/12/17 13:38:56;;;;;;;34.60;21.73;;;3.40;99.90;;;;;;5008676;28;20232;-73
2022/12/17 13:41:29;;;;;;;36.07;21.33;;;3.40;99.90;;;;;;5009855;28;20183;-71
2022/12/17 13:44:25;;;;;;;45.73;26.63;;;3.20;99.90;;;;;;5010192;28;20175;-74
2022/12/17 13:46:53;;;;;;;39.97;21.57;;;3.20;99.90;;;;;;5010001;28;20229;-73
2022/12/17 13:49:29;;;;;;;36.43;21.30;;;3.10;99.90;;;;;;5010764;28;20200;-72
2022/12/17 13:52:01;;;;;;;35.87;22.20;;;3.10;99.90;;;;;;5009155;28;20167;-72
2022/12/17 13:54:27;;;;;;;38.17;22.53;;;2.90;99.90;;;;;;5055384;28;20224;-71
2022/12/17 13:56:53;;;;;;;43.17;25.17;;;2.90;99.90;;;;;;5072339;28;20183;-73
2022/12/17 13:59:24;;;;;;;40.53;26.47;;;2.90;99.90;;;;;;5071881;28;20184;-72
2022/12/17 14:01:52;;;;;;;40.97;24.37;;;3.00;99.90;;;;;;5071614;28;20651;-72
2022/12/17 14:04:26;;;;;;;74.07;56.93;;;3.00;99.90;;;;;;5071938;28;20198;-73
2022/12/17 14:06:55;;;;;;;34.87;21.57;;;3.00;99.90;;;;;;5074763;28;20172;-73
2022/12/17 14:09:29;;;;;;;39.33;23.47;;;2.90;99.90;;;;;;5075657;28;20176;-72
2022/12/17 14:14:45;;;;;;;40.50;23.03;;;2.80;99.90;;;;;;5075606;28;20295;-74
2022/12/17 14:17:33;;;;;;;42.10;23.87;;;2.90;99.90;;;;;;5075619;28;20165;-73
2022/12/17 14:20:06;;;;;;;38.53;23.27;;;2.90;99.90;;;;;;5075704;28;20172;-73
2022/12/17 14:22:36;;;;;;;45.43;24.00;;;2.90;99.90;;;;;;5074756;28;20169;-72
2022/12/17 14:25:05;;;;;;;43.23;24.37;;;2.90;99.90;;;;;;5073920;28;20647;-73
2022/12/17 14:27:34;;;;;;;33.80;22.27;;;2.80;99.90;;;;;;5074662;28;20176;-74
2022/12/17 14:30:01;;;;;;;42.67;27.87;;;2.80;99.90;;;;;;5074571;28;20263;-73
2022/12/17 14:32:33;;;;;;;34.90;19.83;;;2.80;99.90;;;;;;5075660;28;20235;-73
2022/12/17 14:34:59;;;;;;;39.53;25.47;;;2.70;99.90;;;;;;5075431;28;20204;-74
2022/12/17 14:37:26;;;;;;;34.93;20.70;;;2.70;99.90;;;;;;5072966;28;20607;-74
2022/12/17 14:39:57;;;;;;;52.53;38.43;;;2.70;99.90;;;;;;5075401;28;20195;-76
2022/12/17 14:42:24;;;;;;;34.00;21.03;;;2.70;99.90;;;;;;5074625;28;20169;-74
2022/12/17 14:45:00;;;;;;;33.73;21.20;;;2.70;99.90;;;;;;5074912;28;20180;-72
2022/12/17 14:47:34;;;;;;;36.97;22.23;;;2.70;99.90;;;;;;5075428;28;20218;-74
2022/12/17 14:50:22;;;;;;;36.83;22.37;;;2.60;99.90;;;;;;5074836;28;20230;-74
2022/12/17 14:52:52;;;;;;;38.10;23.30;;;2.60;99.90;;;;;;5074924;28;20194;-74
2022/12/17 14:55:27;;;;;;;38.03;21.73;;;2.60;99.90;;;;;;5074329;28;20204;-75
2022/12/17 14:58:05;;;;;;;41.33;23.20;;;2.60;99.90;;;;;;5074244;28;20203;-74
2022/12/17 15:00:31;;;;;;;35.03;21.17;;;2.60;99.90;;;;;;5075168;28;20175;-73
2022/12/17 15:02:56;;;;;;;36.43;21.70;;;2.50;99.90;;;;;;5074303;28;20173;-74
2022/12/17 15:05:22;;;;;;;40.77;22.77;;;2.40;99.90;;;;;;5073429;28;20221;-73
2022/12/17 15:07:48;;;;;;;35.00;21.97;;;2.30;99.90;;;;;;5074393;28;20181;-76
2022/12/17 15:10:18;;;;;;;40.67;22.83;;;2.30;99.90;;;;;;5074674;28;20577;-74
2022/12/17 15:12:44;;;;;;;38.97;22.97;;;2.30;99.90;;;;;;5074580;28;20612;-75
2022/12/17 15:15:14;;;;;;;39.20;22.80;;;2.20;99.90;;;;;;5074180;28;20337;-74
2022/12/17 15:17:40;;;;;;;42.10;22.57;;;2.10;99.90;;;;;;5073131;28;20180;-74
2022/12/17 15:20:08;;;;;;;45.23;24.67;;;2.10;99.90;;;;;;5074473;28;20164;-75
2022/12/17 15:22:36;;;;;;;48.10;26.17;;;2.00;99.90;;;;;;5074378;28;20271;-75
2022/12/17 15:25:02;;;;;;;50.27;26.63;;;1.90;99.90;;;;;;5074561;28;20176;-74
2022/12/17 15:27:28;;;;;;;49.60;27.03;;;1.90;99.90;;;;;;5073824;28;20315;-75
2022/12/17 15:29:53;;;;;;;50.00;26.57;;;1.90;99.90;;;;;;5074427;28;20263;-75
2022/12/17 15:32:21;;;;;;;57.07;31.20;;;1.80;99.90;;;;;;5074305;28;20620;-73
2022/12/17 15:34:47;;;;;;;60.33;31.17;;;1.80;99.90;;;;;;5072996;28;20212;-75
2022/12/17 15:37:13;;;;;;;67.40;36.13;;;1.70;99.90;;;;;;5073581;28;20168;-75
2022/12/17 15:39:39;;;;;;;75.33;38.13;;;1.60;99.90;;;;;;5073825;28;20184;-75
2022/12/17 15:44:49;;;;;;;73.47;38.20;;;1.50;99.90;;;;;;5073763;28;20186;-74
2022/12/17 15:47:14;;;;;;;70.67;36.13;;;1.40;99.90;;;;;;5073368;28;20526;-74
2022/12/17 15:49:40;;;;;;;71.40;37.53;;;1.30;99.90;;;;;;5073812;28;20180;-75
2022/12/17 15:52:06;;;;;;;71.40;37.03;;;1.20;99.90;;;;;;5073394;28;20262;-75
2022/12/17 15:54:31;;;;;;;65.67;35.07;;;1.10;99.90;;;;;;5073134;28;20220;-75
2022/12/17 15:56:57;;;;;;;73.93;38.57;;;1.10;99.90;;;;;;5073388;28;20196;-75
2022/12/17 15:59:23;;;;;;;73.17;37.87;;;0.90;99.90;;;;;;5074279;28;20202;-74
2022/12/17 16:01:48;;;;;;;71.77;37.77;;;0.90;99.90;;;;;;5073218;28;20179;-74
2022/12/17 16:04:14;;;;;;;73.57;37.53;;;0.90;99.90;;;;;;5073115;28;20501;-74
2022/12/17 16:06:40;;;;;;;74.37;39.23;;;0.80;99.90;;;;;;5073443;28;20641;-75
2022/12/17 16:09:05;;;;;;;77.37;38.77;;;0.80;99.90;;;;;;5073884;28;20492;-75
2022/12/17 16:11:31;;;;;;;80.97;40.00;;;0.70;99.90;;;;;;5072697;28;20175;-74
2022/12/17 16:13:56;;;;;;;82.03;41.20;;;0.70;99.90;;;;;;5073064;28;20254;-73
2022/12/17 16:16:22;;;;;;;73.83;36.83;;;0.60;99.90;;;;;;5072741;28;20180;-75
2022/12/17 16:18:48;;;;;;;77.27;38.13;;;0.60;99.90;;;;;;5072552;28;20182;-74
2022/12/17 16:21:14;;;;;;;75.57;39.00;;;0.60;99.90;;;;;;5073349;28;20635;-76
2022/12/17 16:23:40;;;;;;;76.80;37.80;;;0.60;99.90;;;;;;5073113;28;20175;-75
2022/12/17 16:26:07;;;;;;;74.30;38.27;;;0.60;99.90;;;;;;5072676;28;20618;-73
2022/12/17 16:28:34;;;;;;;73.40;35.63;;;0.50;99.90;;;;;;5072639;28;20207;-75
2022/12/17 16:31:10;;;;;;;72.87;35.77;;;0.50;99.90;;;;;;5073139;28;20194;-74
2022/12/17 16:33:37;;;;;;;74.70;36.33;;;0.40;99.90;;;;;;5072217;28;20275;-75
2022/12/17 16:36:04;;;;;;;69.23;34.30;;;0.30;99.90;;;;;;5072520;28;20222;-74
2022/12/17 16:38:30;;;;;;;73.67;36.20;;;0.30;99.90;;;;;;5073032;28;20179;-76
2022/12/17 16:40:58;;;;;;;71.00;36.10;;;0.30;99.90;;;;;;5072533;28;20608;-74
2022/12/17 16:43:25;;;;;;;68.93;35.93;;;0.30;99.90;;;;;;5073037;28;20175;-77
2022/12/17 16:45:53;;;;;;;62.83;32.93;;;0.40;99.90;;;;;;5072736;28;20589;-76
2022/12/17 16:48:20;;;;;;;70.03;34.53;;;0.40;99.90;;;;;;5072405;28;20170;-75
2022/12/17 16:50:47;;;;;;;66.77;33.17;;;0.40;99.90;;;;;;5073046;28;20169;-75
2022/12/17 16:53:12;;;;;;;67.67;34.73;;;0.40;99.90;;;;;;5073221;28;20185;-76
2022/12/17 16:55:47;;;;;;;65.80;33.77;;;0.40;99.90;;;;;;5072354;28;20555;-74
2022/12/17 16:58:15;;;;;;;77.07;36.90;;;0.40;99.90;;;;;;5072366;28;20178;-75
2022/12/17 17:00:40;;;;;;;72.80;35.43;;;0.40;99.90;;;;;;5073031;28;20251;-75
2022/12/17 17:03:07;;;;;;;62.00;32.97;;;0.40;99.90;;;;;;5072516;28;20196;-76
2022/12/17 17:05:38;;;;;;;71.40;34.67;;;0.50;99.90;;;;;;5072192;28;20257;-75
2022/12/17 17:08:05;;;;;;;61.43;30.43;;;0.40;99.90;;;;;;5072738;28;20164;-74
2022/12/17 17:10:33;;;;;;;57.53;29.87;;;0.40;99.90;;;;;;5072880;28;20178;-76
2022/12/17 17:12:59;;;;;;;60.83;30.33;;;0.40;99.90;;;;;;5072320;28;20220;-74
2022/12/17 17:15:24;;;;;;;60.83;30.97;;;0.30;99.90;;;;;;5071825;28;20220;-76
2022/12/17 17:17:50;;;;;;;61.83;30.97;;;0.40;99.90;;;;;;5072350;28;20620;-75
2022/12/17 17:20:16;;;;;;;61.07;30.20;;;0.40;99.90;;;;;;5072532;28;20578;-74
2022/12/17 17:22:41;;;;;;;63.53;32.17;;;0.50;99.90;;;;;;5072381;28;20242;-75
2022/12/17 17:25:07;;;;;;;64.37;33.40;;;0.50;99.90;;;;;;5071689;28;20208;-75
2022/12/17 17:27:33;;;;;;;71.73;35.47;;;0.50;99.90;;;;;;5072484;28;20508;-76
2022/12/17 17:29:58;;;;;;;69.00;35.23;;;0.50;99.90;;;;;;5072192;28;20199;-75
2022/12/17 17:32:25;;;;;;;68.07;34.40;;;0.70;99.90;;;;;;5072845;28;20172;-74
2022/12/17 17:34:51;;;;;;;60.80;31.47;;;0.50;99.90;;;;;;5071869;28;20210;-74
2022/12/17 17:37:17;;;;;;;65.47;33.23;;;0.50;99.90;;;;;;5071844;28;20167;-74
2022/12/17 17:39:42;;;;;;;64.63;33.00;;;0.50;99.90;;;;;;5073246;28;20749;-74
2022/12/17 17:42:08;;;;;;;61.80;32.50;;;0.40;99.90;;;;;;5076197;28;20223;-75
2022/12/17 17:44:34;;;;;;;65.67;31.80;;;0.40;99.90;;;;;;5075984;28;20646;-75
2022/12/17 17:47:00;;;;;;;68.53;33.77;;;0.50;99.90;;;;;;5076135;28;20180;-76
2022/12/17 17:49:26;;;;;;;69.63;35.83;;;0.50;99.90;;;;;;5075479;28;20170;-74
2022/12/17 17:51:52;;;;;;;61.37;32.93;;;0.50;99.90;;;;;;5076329;28;20184;-74
2022/12/17 17:54:17;;;;;;;61.13;31.90;;;0.50;99.90;;;;;;5076129;28;20574;-76
2022/12/17 17:56:43;;;;;;;61.67;31.83;;;0.50;99.90;;;;;;5075760;28;20214;-75
2022/12/17 17:59:09;;;;;;;60.70;32.20;;;0.50;99.90;;;;;;5075135;28;20275;-76
2022/12/17 18:01:38;;;;;;;60.50;31.50;;;0.50;99.90;;;;;;5076272;28;20175;-75
2022/12/17 18:04:05;;;;;;;59.30;31.77;;;0.50;99.90;;;;;;5075351;28;20279;-76
2022/12/17 18:06:32;;;;;;;60.73;33.40;;;0.50;99.90;;;;;;5075103;28;20242;-74
2022/12/17 18:08:58;;;;;;;65.97;33.10;;;0.40;99.90;;;;;;5075914;28;20175;-75
2022/12/17 18:11:27;;;;;;;62.67;32.87;;;0.50;99.90;;;;;;5075723;28;20172;-75
2022/12/17 18:13:54;;;;;;;63.33;31.83;;;0.40;99.90;;;;;;5074984;28;20299;-75
2022/12/17 18:16:27;;;;;;;63.97;32.60;;;0.40;99.90;;;;;;5074884;28;20345;-76
2022/12/17 18:18:59;;;;;;;64.90;33.47;;;0.40;99.90;;;;;;5075643;28;20186;-75
2022/12/17 18:21:26;;;;;;;56.77;27.77;;;0.40;99.90;;;;;;5075781;28;20178;-75
2022/12/17 18:24:10;;;;;;;56.30;28.47;;;0.40;99.90;;;;;;5075488;28;20182;-74
2022/12/17 18:26:38;;;;;;;62.03;32.10;;;0.40;99.90;;;;;;5075485;28;20185;-76
2022/12/17 18:29:10;;;;;;;64.73;34.47;;;0.30;99.90;;;;;;5074813;28;20546;-75
2022/12/17 18:31:36;;;;;;;76.80;38.07;;;0.30;99.90;;;;;;5075736;28;20206;-76
2022/12/17 18:34:03;;;;;;;68.87;34.83;;;0.30;99.90;;;;;;5075397;28;20175;-75
2022/12/17 18:36:32;;;;;;;76.67;38.13;;;0.10;99.90;;;;;;5074779;28;20527;-74
2022/12/17 18:39:00;;;;;;;75.73;37.30;;;-0.20;99.90;;;;;;5075115;28;20172;-75
2022/12/17 18:44:12;;;;;;;72.10;36.73;;;-0.40;99.90;;;;;;5074566;28;20176;-75
2022/12/17 18:46:38;;;;;;;92.00;42.27;;;-0.50;99.90;;;;;;5075149;28;20245;-73
2022/12/17 18:49:06;;;;;;;88.97;42.77;;;-0.40;99.90;;;;;;5075393;28;20177;-75
2022/12/17 18:51:34;;;;;;;71.53;34.67;;;-0.40;99.90;;;;;;5074867;28;20183;-76
2022/12/17 18:54:01;;;;;;;82.23;38.60;;;-0.60;99.90;;;;;;5074562;28;20193;-75
2022/12/17 18:56:28;;;;;;;63.43;32.20;;;-0.50;99.90;;;;;;5074834;28;20195;-75
2022/12/17 18:58:55;;;;;;;88.50;41.97;;;-0.30;99.90;;;;;;5074920;28;20621;-74
2022/12/17 19:01:23;;;;;;;77.20;38.70;;;-0.20;99.90;;;;;;5074932;28;20176;-75
2022/12/17 19:03:49;;;;;;;82.37;40.07;;;-0.20;99.90;;;;;;5074818;28;20201;-76
2022/12/17 19:06:15;;;;;;;81.97;41.03;;;-0.20;99.90;;;;;;5074956;28;20664;-75
2022/12/17 19:08:41;;;;;;;88.47;42.23;;;-0.10;99.90;;;;;;5074735;28;20216;-75
2022/12/17 19:11:08;;;;;;;83.57;41.57;;;-0.20;99.90;;;;;;5074830;28;20180;-75
2022/12/17 19:13:34;;;;;;;84.67;42.10;;;-0.40;99.90;;;;;;5074335;28;20232;-75
2022/12/17 19:16:21;;;;;;;96.50;43.20;;;-0.50;99.90;;;;;;5074262;28;20566;-75
2022/12/17 19:19:00;;;;;;;83.47;39.80;;;-0.60;99.90;;;;;;5074437;28;20248;-75
2022/12/17 19:21:25;;;;;;;85.47;38.90;;;-0.70;99.90;;;;;;5074348;28;20169;-74
2022/12/17 19:23:57;;;;;;;83.83;39.33;;;-0.80;99.90;;;;;;5074282;28;20174;-76
2022/12/17 19:26:23;;;;;;;86.70;40.67;;;-0.80;99.90;;;;;;5073977;28;20226;-76
2022/12/17 19:28:50;;;;;;;77.23;37.93;;;-0.80;99.90;;;;;;5074521;28;20176;-76
2022/12/17 19:31:18;;;;;;;85.03;41.40;;;-0.80;99.90;;;;;;5074552;28;20655;-75
2022/12/17 19:33:43;;;;;;;86.40;39.40;;;-0.70;99.90;;;;;;5074100;28;20230;-76
2022/12/17 19:36:15;;;;;;;84.00;39.10;;;-0.70;99.90;;;;;;5074406;28;20675;-76
2022/12/17 19:38:41;;;;;;;83.63;39.10;;;-0.80;99.90;;;;;;5074200;28;20177;-76
2022/12/17 19:41:09;;;;;;;85.23;38.60;;;-1.00;99.90;;;;;;5073819;28;20180;-77
2022/12/17 19:43:35;;;;;;;84.10;39.23;;;-1.10;99.90;;;;;;5073988;28;20226;-77
2022/12/17 19:46:25;;;;;;;84.53;38.70;;;-1.00;99.90;;;;;;5073980;28;20177;-76
2022/12/17 19:48:51;;;;;;;85.73;39.60;;;-1.20;99.90;;;;;;5073750;28;20240;-76
2022/12/17 19:51:20;;;;;;;82.57;39.13;;;-1.20;99.90;;;;;;5073876;28;20588;-75
2022/12/17 19:53:47;;;;;;;84.10;39.43;;;-1.20;99.90;;;;;;5073557;28;20169;-76
2022/12/17 19:56:23;;;;;;;89.37;41.23;;;-1.30;99.90;;;;;;5073634;28;20671;-74
2022/12/17 19:58:55;;;;;;;82.17;39.20;;;-1.30;99.90;;;;;;5073430;28;20172;-76
2022/12/17 20:01:24;;;;;;;91.70;41.03;;;-1.40;99.90;;;;;;5074385;28;20168;-77
2022/12/17 20:03:50;;;;;;;85.40;40.50;;;-1.40;99.90;;;;;;5073114;28;20171;-77
2022/12/17 20:06:17;;;;;;;85.97;40.97;;;-1.40;99.90;;;;;;5073302;28;20180;-75
2022/12/17 20:08:43;;;;;;;86.37;40.37;;;-1.50;99.90;;;;;;5073450;28;20234;-75
2022/12/17 20:13:57;;;;;;;80.40;39.47;;;-1.50;99.90;;;;;;5073656;28;20218;-75
2022/12/17 20:16:23;;;;;;;88.57;41.30;;;-1.40;99.90;;;;;;5073013;28;20212;-75
2022/12/17 20:18:49;;;;;;;82.77;40.77;;;-1.30;99.90;;;;;;5073422;28;20692;-75
2022/12/17 20:21:15;;;;;;;85.73;41.40;;;-1.30;99.90;;;;;;5073397;28;20166;-75
2022/12/17 20:23:40;;;;;;;86.80;41.80;;;-1.30;99.90;;;;;;5073253;28;20173;-74
2022/12/17 20:26:08;;;;;;;87.10;42.47;;;-1.30;99.90;;;;;;5072953;28;20231;-75
2022/12/17 20:28:35;;;;;;;88.13;43.20;;;-1.30;99.90;;;;;;5073328;28;20169;-76
2022/12/17 20:31:02;;;;;;;79.10;40.33;;;-1.20;99.90;;;;;;5072982;28;20201;-75
2022/12/17 20:33:28;;;;;;;83.43;41.93;;;-1.20;99.90;;;;;;5073464;28;20171;-75
2022/12/17 20:35:54;;;;;;;82.23;40.87;;;-1.10;99.90;;;;;;5072772;28;20212;-76
2022/12/17 20:38:19;;;;;;;82.57;42.37;;;-1.10;99.90;;;;;;5072641;28;20164;-74
2022/12/17 20:40:45;;;;;;;84.47;42.97;;;-1.10;99.90;;;;;;5073341;28;20290;-76
2022/12/17 20:43:11;;;;;;;80.10;40.10;;;-1.10;99.90;;;;;;5073443;28;20192;-75
2022/12/17 20:45:37;;;;;;;90.20;42.87;;;-1.10;99.90;;;;;;5073063;28;20200;-74
2022/12/17 20:48:03;;;;;;;75.63;37.73;;;-1.10;99.90;;;;;;5073248;28;20172;-76
2022/12/17 20:50:29;;;;;;;86.70;42.77;;;-1.10;99.90;;;;;;5072984;28;20234;-76
2022/12/17 20:52:54;;;;;;;84.33;41.57;;;-1.20;99.90;;;;;;5072775;28;20182;-76
2022/12/17 20:55:20;;;;;;;85.63;42.40;;;-1.20;99.90;;;;;;5073027;28;20210;-76
2022/12/17 20:57:46;;;;;;;91.10;43.77;;;-1.30;99.90;;;;;;5073273;28;20500;-76
2022/12/17 21:00:11;;;;;;;86.27;41.80;;;-1.30;99.90;;;;;;5073033;28;20172;-75
2022/12/17 21:02:37;;;;;;;80.97;41.20;;;-1.40;99.90;;;;;;5073081;28;20255;-77
2022/12/17 21:05:04;;;;;;;83.17;40.40;;;-1.40;99.90;;;;;;5072836;28;20650;-77
2022/12/17 21:07:30;;;;;;;79.60;41.00;;;-1.40;99.90;;;;;;5072613;28;20246;-76
2022/12/17 21:09:56;;;;;;;84.50;40.03;;;-1.40;99.90;;;;;;5072804;28;20250;-76
2022/12/17 21:12:22;;;;;;;80.10;40.00;;;-1.30;99.90;;;;;;5072599;28;20687;-77
2022/12/17 21:14:47;;;;;;;79.87;41.07;;;-1.40;99.90;;;;;;5072023;28;20507;-75
2022/12/17 21:17:13;;;;;;;83.10;42.80;;;-1.40;99.90;;;;;;5071454;28;20168;-75
2022/12/17 21:19:39;;;;;;;77.50;39.87;;;-1.40;99.90;;;;;;5073025;28;20332;-76
2022/12/17 21:22:05;;;;;;;74.50;38.83;;;-1.40;99.90;;;;;;5072220;28;20697;-76
2022/12/17 21:24:30;;;;;;;75.23;39.23;;;-1.50;99.90;;;;;;5072895;28;20235;-76
2022/12/17 21:26:56;;;;;;;79.63;39.93;;;-1.40;99.90;;;;;;5072954;28;20180;-76
2022/12/17 21:29:22;;;;;;;76.00;38.50;;;-1.40;99.90;;;;;;5073034;28;20176;-76
2022/12/17 21:31:51;;;;;;;73.83;38.30;;;-1.40;99.90;;;;;;5073008;28;20540;-76
2022/12/17 21:34:23;;;;;;;75.03;39.27;;;-1.40;99.90;;;;;;5072554;28;20268;-76
2022/12/17 21:36:50;;;;;;;80.87;40.33;;;-1.20;99.90;;;;;;5072015;28;20200;-76
2022/12/17 21:39:16;;;;;;;75.23;39.53;;;-1.40;99.90;;;;;;5072817;28;20297;-76
2022/12/17 21:43:00;;;;;;;75.97;38.77;;;-1.30;99.90;;;;;;5072530;28;20165;-76
2022/12/17 21:44:29;;;;;;;73.73;37.73;;;-1.40;99.90;;;;;;5072604;28;20171;-76
2022/12/17 21:46:55;;;;;;;77.20;39.17;;;-1.40;99.90;;;;;;5072552;28;20255;-75
2022/12/17 21:49:20;;;;;;;71.37;37.80;;;-1.50;99.90;;;;;;5072597;28;20172;-76
2022/12/17 21:51:46;;;;;;;79.63;39.43;;;-1.50;99.90;;;;;;5071995;28;20277;-76
2022/12/17 21:54:12;;;;;;;76.00;39.13;;;-1.60;99.90;;;;;;5072066;28;20650;-75
2022/12/17 21:56:37;;;;;;;73.07;38.87;;;-1.50;99.90;;;;;;5072509;28;20255;-76
2022/12/17 21:59:03;;;;;;;83.10;39.30;;;-1.50;99.90;;;;;;5071212;28;20179;-75
2022/12/17 22:01:31;;;;;;;75.93;38.73;;;-1.50;99.90;;;;;;5072630;28;20206;-76
2022/12/17 22:03:59;;;;;;;79.53;39.43;;;-1.60;99.90;;;;;;5072670;28;20256;-76
2022/12/17 22:06:26;;;;;;;79.17;39.70;;;-1.50;99.90;;;;;;5071893;28;20165;-75
2022/12/17 22:08:52;;;;;;;75.53;39.20;;;-1.50;99.90;;;;;;5072424;28;20255;-75
2022/12/17 22:11:23;;;;;;;77.33;38.90;;;-1.60;99.90;;;;;;5071848;28;20245;-75
2022/12/17 22:14:01;;;;;;;75.17;39.37;;;-1.60;99.90;;;;;;5072295;28;20224;-75
2022/12/17 22:16:34;;;;;;;81.47;38.63;;;-1.60;99.90;;;;;;5072384;28;20996;-76
2022/12/17 22:19:01;;;;;;;72.97;38.87;;;-1.70;99.90;;;;;;5072508;28;20520;-76
2022/12/17 22:21:27;;;;;;;76.53;38.33;;;-1.50;99.90;;;;;;5071716;28;20176;-76
2022/12/17 22:23:52;;;;;;;71.20;36.67;;;-1.60;99.90;;;;;;5072737;28;20507;-77
2022/12/17 22:26:19;;;;;;;75.37;38.53;;;-1.50;99.90;;;;;;5073807;28;20169;-76
2022/12/17 22:28:48;;;;;;;68.07;37.00;;;-1.60;99.90;;;;;;5075663;28;20541;-76
2022/12/17 22:34:06;;;;;;;77.00;36.73;;;-1.60;99.90;;;;;;5076285;28;20214;-75
2022/12/17 22:36:33;;;;;;;66.27;34.93;;;-1.60;99.90;;;;;;5075256;28;20701;-76
2022/12/17 22:39:04;;;;;;;64.03;34.23;;;-1.70;99.90;;;;;;5075481;28;20184;-76
2022/12/17 22:44:14;;;;;;;68.07;35.03;;;-1.60;99.90;;;;;;5076050;28;20179;-75
2022/12/17 22:46:41;;;;;;;70.33;35.50;;;-1.70;99.90;;;;;;5075300;28;20541;-75
2022/12/17 22:49:07;;;;;;;68.43;35.23;;;-1.80;99.90;;;;;;5074992;28;20245;-76
2022/12/17 22:51:32;;;;;;;69.90;34.90;;;-1.80;99.90;;;;;;5074983;28;20291;-75
2022/12/17 22:54:03;;;;;;;70.93;35.17;;;-1.90;99.90;;;;;;5075280;28;20651;-75
2022/12/17 22:56:29;;;;;;;67.43;34.13;;;-2.00;99.90;;;;;;5075106;28;20211;-76
2022/12/17 22:58:55;;;;;;;68.03;34.73;;;-2.00;99.90;;;;;;5075462;28;20176;-75
2022/12/17 23:01:21;;;;;;;71.30;35.23;;;-2.00;99.90;;;;;;5075419;28;20753;-76
2022/12/17 23:03:46;;;;;;;71.83;35.67;;;-2.00;99.90;;;;;;5074862;28;20176;-75
2022/12/17 23:06:16;;;;;;;67.57;33.87;;;-2.10;99.90;;;;;;5074953;28;20673;-75
2022/12/17 23:08:42;;;;;;;75.87;35.60;;;-2.20;99.90;;;;;;5075275;28;20664;-76
2022/12/17 23:11:10;;;;;;;72.50;35.77;;;-2.20;99.90;;;;;;5075024;28;20233;-77
2022/12/17 23:13:36;;;;;;;76.40;35.63;;;-2.20;99.90;;;;;;5074616;28;20222;-76
2022/12/17 23:16:02;;;;;;;75.20;36.20;;;-2.30;99.90;;;;;;5074412;28;20273;-76
2022/12/17 23:18:28;;;;;;;71.90;35.87;;;-2.30;99.90;;;;;;5074934;28;20355;-76
2022/12/17 23:20:54;;;;;;;71.07;35.10;;;-2.20;99.90;;;;;;5074455;28;20175;-76
2022/12/17 23:23:20;;;;;;;70.63;34.77;;;-2.40;99.90;;;;;;5074821;28;20165;-75
2022/12/17 23:25:45;;;;;;;69.53;35.63;;;-2.50;99.90;;;;;;5074990;28;20168;-76
2022/12/17 23:28:11;;;;;;;77.23;36.33;;;-2.50;99.90;;;;;;5074881;28;20179;-76
2022/12/17 23:30:37;;;;;;;74.37;36.47;;;-2.60;99.90;;;;;;5074480;28;20195;-76
2022/12/17 23:33:03;;;;;;;72.20;35.87;;;-2.60;99.90;;;;;;5074454;28;20180;-76
2022/12/17 23:35:29;;;;;;;73.57;35.43;;;-2.60;99.90;;;;;;5074243;28;20266;-75
2022/12/17 23:37:54;;;;;;;72.00;35.40;;;-2.60;99.90;;;;;;5073884;28;20668;-75
2022/12/17 23:40:21;;;;;;;73.23;35.43;;;-2.60;99.90;;;;;;5074611;28;20203;-75
2022/12/17 23:42:46;;;;;;;68.77;35.87;;;-2.60;99.90;;;;;;5074417;28;20304;-76
2022/12/17 23:45:12;;;;;;;77.80;35.50;;;-2.60;99.90;;;;;;5074743;28;20636;-76
2022/12/17 23:47:39;;;;;;;73.13;34.90;;;-2.60;99.90;;;;;;5074255;28;20254;-76
2022/12/17 23:50:07;;;;;;;71.90;35.00;;;-2.60;99.90;;;;;;5074522;28;20578;-76
2022/12/17 23:52:33;;;;;;;73.03;34.57;;;-2.80;99.90;;;;;;5074502;28;20186;-76
2022/12/17 23:54:58;;;;;;;67.63;33.97;;;-2.90;99.90;;;;;;5074071;28;20207;-76
2022/12/17 23:57:24;;;;;;;67.23;32.30;;;-3.00;99.90;;;;;;5074389;28;20225;-75
2022/12/17 23:59:49;;;;;;;64.83;32.57;;;-3.20;99.90;;;;;;5074334;28;20172;-77
